aviador You're here:

YMML Decoded Metar

MELBOURNE in AUSTRALIA
Report Time2017-09-22 11:30:00
UTC Time2017-09-22 11:45:16
Flight Rules vfr VFR
Wind010° at 14 kt
W.Decomp.*RWY 34: 13.2 kt HW 4.6 kt RCW
RWY 27: 0.2 kt HW 14.0 kt RCW
W.Rank010° ranks 2
Current wind is below 010° avg. (14.4)
Visibility9999 m
Phenomena:N/A
Clouds:N/A
Expected CloudBase > 2,800 ft AGL from Temp-Dew spread
CeilingNone
Temp15°C (ISA +1)
Dew Point08°C (63% RH)
AAT9.5°C
QNH1005 hPa
Density Alt991 ft
Elevation463 ft
Report Wrong Elevation
Raw Report
METAR YMML 221130Z 01014KT CAVOK 15/08 Q1005
FM1130 MOD TURB BLW 5000FT=

Extra information for YMML:More info

Metar Taf Metar & Taf Last 4 Metars F.Rules Stats Wind Profile Meteogram Temp Stats Airport Information Weather charts Add Link Nearby VenuesMetar ALERT Operation Metar Decoded Social comments